Time;durP1;ratioP1;P1;durP2;ratioP2;P2;SDS_P1;SDS_P2;PMS_P1;PMS_P2;Temp;Humidity;BMP_temperature;BMP_pressure;BME280_temperature;BME280_humidity;BME280_pressure;Samples;Min_cycle;Max_cycle;Signal;HPM_P1;HPM_P2
2023/09/13 00:00:28;;;;;;;15.18;6.45;;;;;;;16.48;100.00;100292.06;5069338;28;20048;-62
2023/09/13 00:02:54;;;;;;;22.65;6.90;;;;;;;16.49;100.00;100299.13;5073146;28;20048;-63
2023/09/13 00:05:23;;;;;;;10.32;6.85;;;;;;;16.47;100.00;100292.25;5073317;28;20499;-62
2023/09/13 00:07:49;;;;;;;14.35;6.88;;;;;;;16.51;100.00;100288.97;5077197;28;20109;-61
2023/09/13 00:10:16;;;;;;;13.48;6.72;;;;;;;16.45;100.00;100287.06;5077511;28;20637;-59
2023/09/13 00:12:43;;;;;;;12.30;6.47;;;;;;;16.43;100.00;100281.00;5077866;28;20452;-60
2023/09/13 00:15:09;;;;;;;10.50;6.57;;;;;;;16.40;100.00;100289.56;5057344;28;20134;-59
2023/09/13 00:17:36;;;;;;;18.05;6.15;;;;;;;16.41;100.00;100299.38;5057202;28;20052;-59
2023/09/13 00:20:03;;;;;;;13.02;6.72;;;;;;;16.36;100.00;100291.00;5058634;28;20083;-60
2023/09/13 00:22:30;;;;;;;14.23;6.75;;;;;;;16.39;100.00;100286.03;5056600;28;20041;-62
2023/09/13 00:24:57;;;;;;;12.40;6.90;;;;;;;16.46;100.00;100294.13;5052462;28;20044;-62
2023/09/13 00:27:23;;;;;;;13.50;7.25;;;;;;;16.42;100.00;100295.59;5052763;28;20053;-62
2023/09/13 00:29:50;;;;;;;14.05;7.30;;;;;;;16.35;100.00;100286.66;5052390;28;20049;-62
2023/09/13 00:32:16;;;;;;;10.80;6.32;;;;;;;16.37;100.00;100284.59;5053046;28;20099;-63
2023/09/13 00:34:43;;;;;;;13.90;6.88;;;;;;;16.37;100.00;100280.00;5052822;28;20106;-62
2023/09/13 00:37:09;;;;;;;14.25;7.07;;;;;;;16.36;100.00;100274.78;5052405;28;20056;-62
2023/09/13 00:39:36;;;;;;;16.02;6.55;;;;;;;16.38;100.00;100275.41;5052544;28;20132;-63
2023/09/13 00:42:03;;;;;;;11.07;6.32;;;;;;;16.40;100.00;100273.31;5052846;28;20409;-62
2023/09/13 00:44:29;;;;;;;9.00;5.93;;;;;;;16.43;100.00;100284.56;5052579;28;20069;-62
2023/09/13 00:46:56;;;;;;;19.73;6.18;;;;;;;16.37;100.00;100296.25;5052222;28;20045;-64
2023/09/13 00:49:23;;;;;;;16.52;6.78;;;;;;;16.40;100.00;100305.78;5052221;28;20102;-64
2023/09/13 00:51:50;;;;;;;18.15;7.28;;;;;;;16.40;100.00;100303.94;5051801;28;20122;-64
2023/09/13 00:54:16;;;;;;;11.98;6.50;;;;;;;16.40;100.00;100303.09;5051387;28;20053;-64
2023/09/13 00:56:43;;;;;;;9.45;6.22;;;;;;;16.37;100.00;100301.66;5051976;28;20045;-64
2023/09/13 00:59:10;;;;;;;11.70;6.57;;;;;;;16.37;100.00;100301.66;5051805;28;20103;-64
2023/09/13 01:01:38;;;;;;;8.50;6.05;;;;;;;16.32;100.00;100298.72;5052214;28;20095;-63
2023/09/13 01:04:05;;;;;;;13.75;6.43;;;;;;;16.31;100.00;100296.25;5051575;28;20102;-63
2023/09/13 01:07:21;;;;;;;14.40;6.00;;;;;;;16.28;100.00;100310.19;5052489;28;20049;-65
2023/09/13 01:09:48;;;;;;;7.35;5.85;;;;;;;16.32;100.00;100309.56;5051160;28;20068;-64
2023/09/13 01:12:15;;;;;;;12.38;6.55;;;;;;;16.24;100.00;100293.53;5051388;28;20049;-64
2023/09/13 01:14:43;;;;;;;18.42;5.88;;;;;;;16.24;100.00;100292.69;5067111;28;20150;-62
2023/09/13 01:17:14;;;;;;;13.82;6.35;;;;;;;16.19;100.00;100287.88;5071413;28;20044;-62
2023/09/13 01:20:17;;;;;;;8.15;5.20;;;;;;;16.22;100.00;100297.47;5071174;28;20041;-62
2023/09/13 01:23:01;;;;;;;11.02;5.50;;;;;;;16.25;100.00;100288.94;5070670;28;20068;-64
2023/09/13 01:26:00;;;;;;;12.63;5.85;;;;;;;16.23;100.00;100283.75;5071769;28;20048;-65
2023/09/13 01:28:59;;;;;;;10.60;5.60;;;;;;;16.20;100.00;100267.94;5071140;28;20040;-64
2023/09/13 01:31:27;;;;;;;9.93;5.30;;;;;;;16.14;100.00;100257.94;5070928;28;20044;-64
2023/09/13 01:33:54;;;;;;;12.55;5.32;;;;;;;16.10;100.00;100243.97;5071248;28;20041;-65
2023/09/13 01:36:21;;;;;;;9.68;5.38;;;;;;;16.02;100.00;100255.03;5070760;28;20564;-65
2023/09/13 01:38:47;;;;;;;11.20;5.45;;;;;;;16.08;100.00;100243.34;5071373;28;20044;-63
2023/09/13 01:41:19;;;;;;;13.32;4.63;;;;;;;16.09;100.00;100260.41;5070325;28;20048;-63
2023/09/13 01:43:46;;;;;;;8.57;4.57;;;;;;;16.18;100.00;100260.00;5075036;28;20479;-64
2023/09/13 01:46:13;;;;;;;8.77;4.80;;;;;;;16.20;100.00;100276.03;5074535;28;20056;-64
2023/09/13 01:48:41;;;;;;;9.52;4.97;;;;;;;16.37;100.00;100317.91;5075151;28;20441;-64
2023/09/13 01:51:08;;;;;;;21.63;5.93;;;;;;;16.49;100.00;100504.09;5073379;28;20063;-64
2023/09/13 01:53:43;;;;;;;82.80;8.38;;;;;;;16.60;100.00;100496.22;5072798;28;20566;-64
2023/09/13 01:56:10;;;;;;;54.78;8.65;;;;;;;16.47;100.00;100506.16;5056076;28;20041;-64
2023/09/13 01:58:36;;;;;;;24.15;6.40;;;;;;;15.92;100.00;100387.16;5052385;28;20056;-64
2023/09/13 02:01:03;;;;;;;33.67;7.82;;;;;;;-2.20;100.00;97534.69;5054188;28;20095;-64
2023/09/13 02:03:30;;;;;;;49.10;10.02;;;;;;;-149.70;100.00;75869.38;5055951;28;20396;-65
2023/09/13 02:05:57;;;;;;;32.97;9.98;;;;;;;-149.70;100.00;75885.63;5065183;28;20045;-64
2023/09/13 02:08:23;;;;;;;32.13;12.27;;;;;;;-149.70;100.00;75887.66;5062171;28;20123;-65
2023/09/13 02:10:50;;;;;;;28.35;10.85;;;;;;;-149.70;100.00;75875.47;5059580;28;20045;-66
2023/09/13 02:13:17;;;;;;;31.23;12.40;;;;;;;-149.70;100.00;75877.50;5063321;28;20049;-65
2023/09/13 02:15:44;;;;;;;31.65;13.65;;;;;;;-149.70;100.00;75885.63;5074696;28;20127;-65
2023/09/13 02:18:10;;;;;;;37.35;15.35;;;;;;;-149.70;100.00;75877.50;5073862;28;20055;-66
2023/09/13 02:20:37;;;;;;;26.17;14.48;;;;;;;-149.70;100.00;75861.22;5073968;28;20074;-66
2023/09/13 02:23:04;;;;;;;26.30;13.38;;;;;;;-149.70;100.00;75847.00;5074259;28;20108;-66
2023/09/13 02:25:36;;;;;;;20.30;13.15;;;;;;;-149.70;100.00;75851.06;5074142;28;20109;-65
2023/09/13 02:28:03;;;;;;;21.42;12.65;;;;;;;-149.70;100.00;75851.06;5073209;28;20044;-67
2023/09/13 02:30:30;;;;;;;23.30;12.95;;;;;;;-149.70;100.00;75847.00;5073099;28;20040;-66
2023/09/13 02:32:57;;;;;;;20.73;11.32;;;;;;;-149.70;100.00;75912.06;5073730;28;20055;-65
2023/09/13 02:35:23;;;;;;;23.60;13.75;;;;;;;-149.70;100.00;75901.88;5072784;28;20064;-66
2023/09/13 02:37:50;;;;;;;24.23;14.43;;;;;;;-149.70;100.00;75899.84;5072651;28;20090;-66
2023/09/13 02:40:16;;;;;;;25.90;15.70;;;;;;;-149.70;100.00;75881.56;5072763;28;20477;-66
2023/09/13 02:42:43;;;;;;;23.48;15.57;;;;;;;-149.70;100.00;75871.41;5072574;28;20044;-66
2023/09/13 02:45:10;;;;;;;30.23;14.90;;;;;;;-149.70;100.00;75881.56;5072333;28;20052;-64
2023/09/13 02:47:37;;;;;;;32.53;15.25;;;;;;;-149.70;100.00;75875.47;5072108;28;20105;-63
2023/09/13 02:50:04;;;;;;;27.15;15.40;;;;;;;-149.70;100.00;75869.38;5073363;28;20503;-65
2023/09/13 02:52:32;;;;;;;26.42;16.50;;;;;;;-149.70;100.00;75859.19;5072608;28;20067;-68
2023/09/13 02:55:01;;;;;;;30.83;16.58;;;;;;;-149.70;100.00;75842.94;5071932;28;20051;-65
2023/09/13 02:57:27;;;;;;;24.83;15.10;;;;;;;-149.70;100.00;75847.00;5071533;28;20763;-65
2023/09/13 02:59:54;;;;;;;24.92;14.95;;;;;;;-149.70;100.00;75847.00;5072181;28;20052;-64
2023/09/13 03:02:20;;;;;;;25.45;16.13;;;;;;;-149.70;100.00;75840.91;5070826;28;20048;-65
2023/09/13 03:04:51;;;;;;;23.92;14.18;;;;;;;-149.70;100.00;75849.03;5072194;28;20064;-64
2023/09/13 03:07:18;;;;;;;23.92;13.73;;;;;;;-149.70;100.00;75853.09;5072168;28;20053;-65
2023/09/13 03:09:46;;;;;;;27.65;13.63;;;;;;;-149.70;100.00;75849.03;5070546;28;20480;-65
2023/09/13 03:12:13;;;;;;;23.25;14.25;;;;;;;-149.70;100.00;75861.22;5071967;28;20553;-65
2023/09/13 03:14:39;;;;;;;22.80;13.55;;;;;;;-149.70;100.00;75849.03;5072346;28;20408;-64
2023/09/13 03:17:06;;;;;;;24.00;14.90;;;;;;;-149.70;100.00;75849.03;5072291;28;20110;-65
2023/09/13 03:19:33;;;;;;;26.15;14.82;;;;;;;-149.70;100.00;75842.94;5072358;28;20123;-65
2023/09/13 03:21:59;;;;;;;26.70;14.98;;;;;;;-149.70;100.00;75844.97;5072304;28;20041;-65
2023/09/13 03:24:26;;;;;;;24.38;15.05;;;;;;;-149.70;100.00;75851.06;5072090;28;20045;-66
2023/09/13 03:26:52;;;;;;;28.15;16.90;;;;;;;-149.70;100.00;75851.06;5072389;28;20056;-65
2023/09/13 03:29:19;;;;;;;25.48;16.83;;;;;;;-149.70;100.00;75861.22;5072425;28;20044;-66
2023/09/13 03:31:45;;;;;;;30.35;20.17;;;;;;;-149.70;100.00;75861.22;5058773;28;20064;-59
2023/09/13 03:34:12;;;;;;;32.10;18.85;;;;;;;-149.70;100.00;75857.16;5053485;28;20741;-61
2023/09/13 03:36:40;;;;;;;30.33;19.08;;;;;;;-149.70;100.00;75861.22;5056827;28;20432;-59
2023/09/13 03:39:06;;;;;;;33.30;19.35;;;;;;;-149.70;100.00;75849.03;5057918;28;20049;-61
2023/09/13 03:41:33;;;;;;;30.40;19.85;;;;;;;-149.70;100.00;75849.03;5058190;28;20048;-59
2023/09/13 03:43:59;;;;;;;31.42;19.27;;;;;;;-149.70;100.00;75842.94;5057974;28;20052;-58
2023/09/13 03:46:26;;;;;;;33.58;20.80;;;;;;;-149.70;100.00;75844.97;5055501;28;20049;-63
2023/09/13 03:48:52;;;;;;;38.25;21.55;;;;;;;-149.70;100.00;75834.81;5054381;28;20481;-63
2023/09/13 03:51:19;;;;;;;33.80;20.83;;;;;;;-149.70;100.00;75830.72;5053881;28;20522;-63
2023/09/13 03:53:46;;;;;;;37.78;22.50;;;;;;;-149.70;100.00;75820.56;5053434;28;20037;-63
2023/09/13 03:56:13;;;;;;;33.90;21.38;;;;;;;-149.70;100.00;75842.94;5053951;28;20057;-63
2023/09/13 03:58:39;;;;;;;33.45;20.90;;;;;;;-149.70;100.00;75836.84;5053759;28;20049;-63
2023/09/13 04:01:06;;;;;;;40.20;22.70;;;;;;;-149.70;100.00;75838.88;5053859;28;20412;-63
2023/09/13 04:03:33;;;;;;;37.30;22.52;;;;;;;-149.70;100.00;75834.81;5054184;28;20750;-63
2023/09/13 04:06:00;;;;;;;36.33;21.65;;;;;;;-149.70;100.00;75844.97;5053936;28;20045;-63
2023/09/13 04:08:28;;;;;;;36.22;22.20;;;;;;;-149.70;100.00;75840.91;5053687;28;20044;-63
2023/09/13 04:10:55;;;;;;;33.20;22.77;;;;;;;-149.70;100.00;75828.69;5053901;28;20056;-63
2023/09/13 04:13:22;;;;;;;43.78;23.98;;;;;;;-149.70;100.00;75832.78;5058763;28;20044;-62
2023/09/13 04:15:49;;;;;;;35.13;23.52;;;;;;;-149.70;100.00;75832.78;5073689;28;20044;-63
2023/09/13 04:18:16;;;;;;;48.25;25.00;;;;;;;-149.70;100.00;75847.00;5073364;28;20416;-63
2023/09/13 04:20:44;;;;;;;31.85;21.63;;;;;;;-149.70;100.00;75832.78;5073682;28;20109;-63
2023/09/13 04:23:10;;;;;;;38.22;23.30;;;;;;;-149.70;100.00;75820.56;5073405;28;20052;-63
2023/09/13 04:25:38;;;;;;;41.22;24.25;;;;;;;-149.70;100.00;75816.50;5073004;28;20044;-63
2023/09/13 04:28:05;;;;;;;37.78;24.98;;;;;;;-149.70;100.00;75820.56;5070329;28;20044;-62
2023/09/13 04:30:32;;;;;;;50.13;26.08;;;;;;;-149.70;100.00;75812.44;5072579;28;20037;-63
2023/09/13 04:33:00;;;;;;;39.55;26.08;;;;;;;-149.70;100.00;75812.44;5073280;28;20044;-63
2023/09/13 04:35:27;;;;;;;40.95;25.60;;;;;;;-149.70;100.00;75812.44;5072549;28;20102;-62
2023/09/13 04:37:54;;;;;;;40.70;25.40;;;;;;;-149.70;100.00;75826.66;5073128;28;20060;-63
2023/09/13 04:40:22;;;;;;;39.15;24.65;;;;;;;-149.70;100.00;75828.69;5073557;28;20102;-63
2023/09/13 04:42:57;;;;;;;44.90;26.77;;;;;;;-149.70;100.00;75826.66;5073550;28;20045;-62
2023/09/13 04:45:24;;;;;;;37.72;24.65;;;;;;;-149.70;100.00;75822.59;5073551;28;20052;-63
2023/09/13 04:47:52;;;;;;;37.78;26.45;;;;;;;-149.70;100.00;75844.97;5072645;28;20048;-63
2023/09/13 04:50:18;;;;;;;35.10;25.45;;;;;;;-149.70;100.00;75832.78;5072906;28;20496;-62
2023/09/13 04:52:45;;;;;;;40.55;23.80;;;;;;;-149.70;100.00;75832.78;5073486;28;20138;-63
2023/09/13 04:55:12;;;;;;;38.97;23.33;;;;;;;-149.70;100.00;75828.69;5073210;28;20459;-62
2023/09/13 04:57:38;;;;;;;36.03;22.27;;;;;;;-149.70;100.00;75832.78;5073290;28;20094;-63
2023/09/13 05:00:10;;;;;;;33.30;20.10;;;;;;;-149.70;100.00;75865.28;5072911;28;20127;-63
2023/09/13 05:02:40;;;;;;;39.38;21.05;;;;;;;-149.70;100.00;75865.28;5073057;28;20048;-62
2023/09/13 05:05:08;;;;;;;35.75;22.25;;;;;;;-149.70;100.00;75885.63;5072699;28;20416;-62
2023/09/13 05:07:35;;;;;;;35.95;22.25;;;;;;;-149.70;100.00;75881.56;5072946;28;20044;-63
2023/09/13 05:10:04;;;;;;;35.75;22.20;;;;;;;-149.70;100.00;75879.53;5073201;28;20044;-63
2023/09/13 05:12:31;;;;;;;32.25;21.40;;;;;;;-149.70;100.00;75887.66;5072668;28;20063;-63
2023/09/13 05:14:57;;;;;;;37.55;22.52;;;;;;;-149.70;100.00;75897.81;5072667;28;20528;-63
2023/09/13 05:17:24;;;;;;;33.05;23.02;;;;;;;-149.70;100.00;75877.50;5072745;28;20500;-63
2023/09/13 05:19:51;;;;;;;30.00;21.17;;;;;;;-149.70;100.00;75895.78;5072494;28;20051;-64
2023/09/13 05:22:18;;;;;;;43.50;27.80;;;;;;;-149.70;100.00;75881.56;5076253;28;20049;-60
2023/09/13 05:24:44;;;;;;;33.55;23.30;;;;;;;-149.70;100.00;75881.56;5076313;28;20044;-59
2023/09/13 05:27:11;;;;;;;33.33;23.00;;;;;;;-149.70;100.00;75865.28;5077179;28;20424;-60
2023/09/13 05:29:38;;;;;;;33.67;23.98;;;;;;;-149.70;100.00;75869.38;5076696;28;20040;-59
2023/09/13 05:32:04;;;;;;;34.33;24.77;;;;;;;-149.70;100.00;75865.28;5077444;28;20052;-61
2023/09/13 05:34:36;;;;;;;;;;;;;;;-149.70;100.00;75883.59;5077606;28;20050;-59
2023/09/13 05:37:02;;;;;;;33.65;21.73;;;;;;;-149.70;100.00;75881.56;5077807;28;19977;-58
2023/09/13 05:39:29;;;;;;;35.80;24.30;;;;;;;-149.70;100.00;75851.06;5076916;28;20048;-60
2023/09/13 05:41:55;;;;;;;40.08;25.92;;;;;;;-149.70;100.00;75861.22;5077601;28;20056;-60
2023/09/13 05:44:24;;;;;;;33.33;23.00;;;;;;;-149.70;100.00;75859.19;5076717;28;20052;-61
2023/09/13 05:46:52;;;;;;;30.98;23.92;;;;;;;-149.70;100.00;75834.81;5077461;28;20048;-59
2023/09/13 05:49:19;;;;;;;31.90;23.70;;;;;;;-149.70;100.00;75840.91;5077106;28;20055;-60
2023/09/13 05:51:46;;;;;;;34.00;23.27;;;;;;;-149.70;100.00;75840.91;5076393;28;20040;-60
2023/09/13 05:54:12;;;;;;;31.80;22.33;;;;;;;-149.70;100.00;75834.81;5076914;28;20408;-60
2023/09/13 05:56:41;;;;;;;31.83;22.75;;;;;;;-149.70;100.00;75840.91;5076938;28;20051;-60
2023/09/13 05:59:08;;;;;;;29.55;20.83;;;;;;;-149.70;100.00;75818.53;5076024;28;20129;-59
2023/09/13 06:01:36;;;;;;;34.97;21.15;;;;;;;-149.70;100.00;75814.47;5077019;28;20044;-62
2023/09/13 06:04:05;;;;;;;33.38;21.63;;;;;;;-149.70;100.00;75820.56;5077073;28;20044;-61
2023/09/13 06:06:33;;;;;;;33.45;20.33;;;;;;;-149.70;100.00;75812.44;5076181;28;20451;-58
2023/09/13 06:09:03;;;;;;;30.45;21.27;;;;;;;-149.70;100.00;75804.31;5073783;28;20516;-64
2023/09/13 06:11:30;;;;;;;30.48;19.55;;;;;;;-149.70;100.00;75786.00;5071270;28;20048;-63
2023/09/13 06:13:58;;;;;;;30.23;19.95;;;;;;;-149.70;100.00;75777.88;5071779;28;20064;-63
2023/09/13 06:16:25;;;;;;;30.40;19.52;;;;;;;-149.70;100.00;75767.72;5071942;28;20078;-63
2023/09/13 06:18:52;;;;;;;24.65;18.13;;;;;;;-149.70;100.00;75749.41;5071242;28;20140;-62
2023/09/13 06:21:19;;;;;;;25.85;16.67;;;;;;;-149.70;100.00;75753.47;5071592;28;20076;-63
2023/09/13 06:23:47;;;;;;;24.35;16.17;;;;;;;-149.70;100.00;75739.25;5071491;28;20466;-63
2023/09/13 06:26:15;;;;;;;24.15;15.70;;;;;;;-149.70;100.00;75716.88;5071129;28;20083;-63
2023/09/13 06:28:41;;;;;;;24.25;15.75;;;;;;;-149.70;100.00;75704.69;5071190;28;20068;-63
2023/09/13 06:31:08;;;;;;;22.58;14.93;;;;;;;-149.70;100.00;75706.72;5071145;28;20056;-63
2023/09/13 06:33:52;;;;;;;19.02;13.40;;;;;;;-149.70;100.00;75672.16;5070198;28;20447;-64
2023/09/13 06:36:20;;;;;;;25.70;15.43;;;;;;;-149.70;100.00;75653.88;5071065;28;20412;-64
2023/09/13 06:38:47;;;;;;;19.58;14.15;;;;;;;-149.70;100.00;75643.69;5071421;28;20070;-63
2023/09/13 06:41:15;;;;;;;24.77;11.68;;;;;;;-149.70;100.00;75617.28;5071822;28;20479;-63
2023/09/13 06:43:44;;;;;;;17.90;10.68;;;;;;;-149.70;100.00;75592.88;5083644;28;20074;-64
2023/09/13 06:46:31;;;;;;;17.02;10.32;;;;;;;-149.70;100.00;75546.13;5079888;28;20155;-63
2023/09/13 06:48:59;;;;;;;16.38;9.10;;;;;;;-149.70;100.00;75517.66;5063712;28;20151;-65
2023/09/13 06:51:28;;;;;;;22.38;10.48;;;;;;;-149.70;100.00;75540.03;5069954;28;20044;-63
2023/09/13 06:53:57;;;;;;;13.68;9.25;;;;;;;-149.70;100.00;75564.41;5082419;28;20051;-64
2023/09/13 06:56:28;;;;;;;14.57;9.70;;;;;;;-149.70;100.00;75552.22;5081960;28;20040;-65
2023/09/13 06:58:58;;;;;;;10.73;8.90;;;;;;;-149.70;100.00;75586.78;5082201;28;20139;-64
2023/09/13 07:01:28;;;;;;;16.33;9.80;;;;;;;-149.70;100.00;75605.06;5071030;28;20044;-64
2023/09/13 07:04:15;;;;;;;15.57;8.93;;;;;;;-149.70;100.00;75633.53;5061151;28;20109;-64
2023/09/13 07:06:48;;;;;;;11.40;8.60;;;;;;;-149.70;100.00;75649.81;5061428;28;20071;-63
2023/09/13 07:09:14;;;;;;;11.88;7.95;;;;;;;-149.70;100.00;75672.16;5061700;28;20057;-63
2023/09/13 07:11:42;;;;;;;10.93;8.18;;;;;;;-149.70;100.00;75643.69;5060772;28;20037;-63
2023/09/13 07:14:08;;;;;;;15.00;8.13;;;;;;;-149.70;100.00;75651.84;5072185;28;20114;-63
2023/09/13 07:16:35;;;;;;;13.13;8.02;;;;;;;-149.70;100.00;75647.78;5083298;28;20048;-64
2023/09/13 07:19:02;;;;;;;18.48;7.65;;;;;;;-149.70;100.00;75666.06;5082321;28;20047;-64
2023/09/13 07:21:32;;;;;;;13.13;7.13;;;;;;;-149.70;100.00;75649.81;5081561;28;20044;-63
2023/09/13 07:23:58;;;;;;;12.05;6.72;;;;;;;-149.70;100.00;75621.34;5074136;28;20040;-63
2023/09/13 07:26:25;;;;;;;13.68;7.40;;;;;;;-149.70;100.00;75611.19;5070444;28;20067;-63
2023/09/13 07:28:51;;;;;;;16.88;6.78;;;;;;;-149.70;100.00;75611.19;5070780;28;20049;-63
2023/09/13 07:31:18;;;;;;;10.85;6.82;;;;;;;-149.70;100.00;75605.06;5070269;28;20416;-63
2023/09/13 07:33:45;;;;;;;15.65;7.15;;;;;;;-149.70;100.00;75605.06;5070907;28;20048;-59
2023/09/13 07:36:13;;;;;;;10.80;6.50;;;;;;;-149.70;100.00;75615.25;5074634;28;20074;-60
2023/09/13 07:38:39;;;;;;;15.80;6.85;;;;;;;-149.70;100.00;75625.41;5074945;28;20049;-61
2023/09/13 07:41:06;;;;;;;16.38;10.05;;;;;;;-149.70;100.00;75621.34;5075177;28;20048;-61
2023/09/13 07:43:33;;;;;;;21.00;8.40;;;;;;;-149.70;100.00;75647.78;5075877;28;20075;-58
2023/09/13 07:46:01;;;;;;;16.63;7.88;;;;;;;-149.70;100.00;75649.81;5075516;28;20381;-60
2023/09/13 07:48:28;;;;;;;12.13;6.80;;;;;;;-149.70;100.00;75651.84;5074808;28;20062;-59
2023/09/13 07:50:54;;;;;;;9.32;6.93;;;;;;;-149.70;100.00;75680.28;5074494;28;20488;-59
2023/09/13 07:53:21;;;;;;;10.65;5.97;;;;;;;-149.70;100.00;75698.59;5074659;28;20072;-59
2023/09/13 07:55:48;;;;;;;10.05;6.78;;;;;;;-149.70;100.00;75700.63;5074821;28;20419;-60
2023/09/13 07:58:14;;;;;;;14.38;7.38;;;;;;;-149.70;100.00;75694.53;5073913;28;20052;-59
2023/09/13 08:00:43;;;;;;;10.55;6.80;;;;;;;-149.70;100.00;75674.19;5073536;28;20121;-60
2023/09/13 08:03:10;;;;;;;13.85;6.57;;;;;;;-149.70;100.00;75629.47;5074187;28;20563;-61
2023/09/13 08:05:39;;;;;;;15.77;6.53;;;;;;;-149.70;100.00;75582.72;5074201;28;20048;-61
2023/09/13 08:08:07;;;;;;;14.60;5.95;;;;;;;-149.70;100.00;75584.75;5074252;28;20045;-60
2023/09/13 08:10:34;;;;;;;8.55;5.63;;;;;;;-149.70;100.00;75580.69;5076046;28;20481;-64
2023/09/13 08:13:00;;;;;;;13.05;6.18;;;;;;;-149.70;100.00;75584.75;5070533;28;20045;-63
2023/09/13 08:15:27;;;;;;;9.75;5.20;;;;;;;-149.70;100.00;75578.66;5070142;28;20408;-63
2023/09/13 08:18:14;;;;;;;9.10;5.00;;;;;;;-149.70;100.00;75594.91;5069945;28;20052;-64
2023/09/13 08:20:41;;;;;;;9.10;5.53;;;;;;;-149.70;100.00;75586.78;5070185;28;20043;-63
2023/09/13 08:23:08;;;;;;;9.50;5.40;;;;;;;-149.70;100.00;75570.53;5070639;28;20449;-63
2023/09/13 08:25:34;;;;;;;9.90;4.88;;;;;;;13.71;100.00;99787.16;5073469;28;20132;-63
2023/09/13 08:28:05;;;;;;;10.85;4.75;;;;;;;15.55;100.00;100091.88;5072756;28;20053;-63
2023/09/13 08:30:32;;;;;;;9.38;4.90;;;;;;;16.55;100.00;100216.28;5073423;28;20058;-63
2023/09/13 08:32:58;;;;;;;8.35;4.35;;;;;;;18.19;100.00;100339.66;5073657;28;20045;-63
2023/09/13 08:35:26;;;;;;;10.23;4.43;;;;;;;20.13;100.00;100435.38;5073454;28;20052;-64
2023/09/13 08:37:52;;;;;;;9.45;4.20;;;;;;;21.33;100.00;100457.00;5073380;28;20071;-66
2023/09/13 08:40:19;;;;;;;8.50;3.42;;;;;;;21.67;100.00;100449.00;5073223;28;20053;-64
2023/09/13 08:42:46;;;;;;;8.32;4.65;;;;;;;21.10;100.00;100451.50;5073332;28;20044;-63
2023/09/13 08:45:13;;;;;;;5.57;3.38;;;;;;;20.57;100.00;100452.38;5072925;28;20059;-63
2023/09/13 08:47:43;;;;;;;8.32;3.42;;;;;;;20.40;100.00;100458.50;5073292;28;20048;-63
2023/09/13 08:50:27;;;;;;;7.18;3.22;;;;;;;20.36;100.00;100451.00;5073061;28;20132;-62
2023/09/13 08:52:58;;;;;;;13.05;4.07;;;;;;;20.05;100.00;100455.59;5073161;28;20045;-63
2023/09/13 08:55:26;;;;;;;4.85;3.00;;;;;;;19.72;100.00;100456.00;5073130;28;20049;-63
2023/09/13 08:57:54;;;;;;;11.07;2.78;;;;;;;19.45;100.00;100466.31;5073370;28;20136;-63
2023/09/13 09:00:23;;;;;;;6.15;3.03;;;;;;;19.08;100.00;100454.56;5073319;28;20484;-62
2023/09/13 09:02:54;;;;;;;5.93;2.88;;;;;;;18.85;100.00;100457.84;5073109;28;20049;-64
2023/09/13 09:05:25;;;;;;;3.88;2.70;;;;;;;19.05;100.00;100463.97;5073120;28;20466;-63
2023/09/13 09:07:55;;;;;;;5.20;2.50;;;;;;;18.87;100.00;100472.06;5080279;28;20036;-65
2023/09/13 09:10:23;;;;;;;7.28;3.15;;;;;;;18.47;100.00;100459.56;5078606;28;20490;-63
2023/09/13 09:12:52;;;;;;;5.25;2.60;;;;;;;18.32;100.00;100461.75;5078358;28;20048;-65
2023/09/13 09:15:20;;;;;;;7.35;2.60;;;;;;;17.98;100.00;100443.94;5078139;28;20400;-65
2023/09/13 09:17:51;;;;;;;5.55;2.25;;;;;;;17.93;100.00;100457.34;5079332;28;20047;-65
2023/09/13 09:20:27;;;;;;;4.32;2.40;;;;;;;17.96;100.00;100460.47;5078213;28;20496;-65
2023/09/13 09:22:57;;;;;;;6.90;2.70;;;;;;;17.57;100.00;100456.81;5078392;28;20045;-64
2023/09/13 09:25:24;;;;;;;8.27;2.13;;;;;;;17.38;100.00;100437.91;5077742;28;20045;-64
2023/09/13 09:27:52;;;;;;;4.68;2.50;;;;;;;17.16;100.00;100423.72;5078737;28;20052;-65
2023/09/13 09:30:28;;;;;;;2.55;2.28;;;;;;;16.85;100.00;100417.06;5078274;28;20044;-64
2023/09/13 09:33:06;;;;;;;4.68;2.45;;;;;;;16.32;100.00;100373.69;5077505;28;20064;-64
2023/09/13 09:35:33;;;;;;;4.18;2.60;;;;;;;16.36;100.00;100380.34;5076063;28;20045;-60
2023/09/13 09:38:00;;;;;;;4.03;2.78;;;;;;;16.40;100.00;100373.47;5075982;28;20458;-58
2023/09/13 09:40:26;;;;;;;4.93;2.65;;;;;;;16.69;100.00;100391.25;5075844;28;20080;-58
2023/09/13 09:42:57;;;;;;;4.65;2.70;;;;;;;16.74;100.00;100402.28;5075993;28;20044;-61
2023/09/13 09:45:24;;;;;;;6.45;2.80;;;;;;;16.71;100.00;100399.97;5076468;28;20109;-59
2023/09/13 09:47:51;;;;;;;3.00;2.55;;;;;;;16.95;100.00;100403.94;5075933;28;20047;-59
2023/09/13 09:50:18;;;;;;;5.15;2.42;;;;;;;16.83;100.00;100408.34;5076094;28;20052;-58
2023/09/13 09:52:53;;;;;;;7.68;2.88;;;;;;;16.80;100.00;100419.56;5075259;28;20049;-59
2023/09/13 09:55:23;;;;;;;5.63;2.90;;;;;;;16.94;100.00;100420.41;5075142;28;20109;-60
2023/09/13 09:57:52;;;;;;;3.95;2.97;;;;;;;16.92;100.00;100423.34;5075745;28;20044;-59
2023/09/13 10:00:19;;;;;;;4.97;2.97;;;;;;;17.00;100.00;100415.00;5074457;28;20044;-59
2023/09/13 10:02:46;;;;;;;3.70;2.42;;;;;;;17.57;100.00;100426.97;5075726;28;20467;-60
2023/09/13 10:05:16;;;;;;;5.13;2.55;;;;;;;19.59;100.00;100510.53;5074738;28;20070;-60
2023/09/13 10:07:57;;;;;;;7.80;2.47;;;;;;;20.95;100.00;100524.78;5075133;28;20102;-60
2023/09/13 10:10:33;;;;;;;5.45;2.50;;;;;;;20.56;100.00;100527.00;5075749;28;20120;-60
2023/09/13 10:13:00;;;;;;;5.65;2.20;;;;;;;20.49;100.00;100532.59;5075533;28;20053;-60
2023/09/13 10:15:27;;;;;;;3.30;2.42;;;;;;;20.39;100.00;100533.09;5074699;28;20407;-60
2023/09/13 10:17:57;;;;;;;2.45;2.22;;;;;;;19.67;100.00;100532.03;5075314;28;20048;-59
2023/09/13 10:20:25;;;;;;;5.47;2.22;;;;;;;19.59;100.00;100529.56;5075192;28;20060;-59
2023/09/13 10:22:54;;;;;;;4.05;2.38;;;;;;;19.40;100.00;100536.88;5075398;28;20040;-59
2023/09/13 10:25:23;;;;;;;10.75;2.78;;;;;;;19.04;100.00;100534.91;5074960;28;20049;-59
2023/09/13 10:27:54;;;;;;;4.78;2.35;;;;;;;18.75;100.00;100537.97;5075817;28;20037;-60
2023/09/13 10:30:26;;;;;;;2.88;2.40;;;;;;;18.63;100.00;100536.19;5074390;28;20048;-59
2023/09/13 10:32:57;;;;;;;2.35;2.13;;;;;;;18.45;100.00;100532.31;5075275;28;20048;-61
2023/09/13 10:35:29;;;;;;;4.55;2.03;;;;;;;18.56;100.00;100533.50;5071518;28;20045;-64
2023/09/13 10:38:13;;;;;;;4.68;2.20;;;;;;;18.31;100.00;100534.25;5071740;28;20051;-65
2023/09/13 10:40:48;;;;;;;5.90;2.53;;;;;;;18.48;100.00;100540.03;5071414;28;20476;-64
2023/09/13 10:43:15;;;;;;;3.53;2.25;;;;;;;18.40;100.00;100537.53;5071308;28;20044;-64
2023/09/13 10:45:41;;;;;;;3.70;2.42;;;;;;;18.46;100.00;100538.56;5070853;28;20047;-65
2023/09/13 10:48:08;;;;;;;5.82;2.45;;;;;;;18.79;100.00;100544.66;5070870;28;20056;-64
2023/09/13 10:50:37;;;;;;;5.00;2.50;;;;;;;18.87;100.00;100546.28;5071508;28;20055;-64
2023/09/13 10:53:04;;;;;;;3.10;2.08;;;;;;;19.14;100.00;100551.53;5071223;28;20094;-65
2023/09/13 10:55:33;;;;;;;4.68;1.88;;;;;;;19.19;100.00;100555.25;5070926;28;20040;-64
2023/09/13 10:58:03;;;;;;;3.75;1.95;;;;;;;19.50;100.00;100570.69;5070958;28;20051;-65
2023/09/13 11:00:32;;;;;;;3.95;2.20;;;;;;;19.20;100.00;100567.78;5070789;28;20048;-65
2023/09/13 11:02:59;;;;;;;4.78;1.67;;;;;;;19.01;100.00;100569.63;5071169;28;20044;-64
2023/09/13 11:05:28;;;;;;;11.80;1.90;;;;;;;19.32;100.00;100573.38;5070619;28;20048;-64
2023/09/13 11:07:55;;;;;;;2.70;1.90;;;;;;;18.97;100.00;100571.13;5071147;28;20051;-64
2023/09/13 11:10:22;;;;;;;6.63;1.95;;;;;;;19.15;100.00;100580.41;5070915;28;20411;-65